< < Back
Terminal Aerodrome Forecast


Current Version              Previous Versions:   1  2  3  4  5  6  7  8  9  

Terminal Aerodrome Forecast

558
FTUS42 KTAE 022300
TAFTLH
TAF
KTLH 022330Z 0300/0324 04003KT P6SM BKN040 OVC250
     FM030400 00000KT 5SM BR SCT003 BKN100
     FM031000 00000KT 1/2SM FG OVC003
     FM031400 14005KT P6SM OVC007
     FM031600 15006KT P6SM OVC012
     FM031900 17007KT P6SM BKN050=

Latest METAR

806
SAUS80 KWBC 030000 RRD
MTRTLH
METAR KTLH 022353Z 01003KT 10SM OVC027 23/16 A3023 RMK AO2 SLP235
T02330161 10267 20233 53003 $


USA.gov is the U.S. government's official web portal to all federal, state and local government web resources and services.